sensor_id;sensor_type;location;lat;lon;timestamp;pressure;altitude;pressure_sealevel;temperature;humidity
29869;BME280;16743;52.062;5.384;2022-10-17T00:02:29;101400.00;;;14.88;100.00
29869;BME280;16743;52.062;5.384;2022-10-17T00:05:01;101401.66;;;14.89;100.00
29869;BME280;16743;52.062;5.384;2022-10-17T00:08:22;101400.22;;;14.68;100.00
29869;BME280;16743;52.062;5.384;2022-10-17T00:10:59;101395.56;;;14.69;100.00
29869;BME280;16743;52.062;5.384;2022-10-17T00:17:18;101383.00;;;14.36;100.00
29869;BME280;16743;52.062;5.384;2022-10-17T00:23:44;101378.59;;;14.35;100.00
29869;BME280;16743;52.062;5.384;2022-10-17T00:26:40;101379.28;;;14.31;100.00
29869;BME280;16743;52.062;5.384;2022-10-17T00:31:56;101384.56;;;14.51;100.00
29869;BME280;16743;52.062;5.384;2022-10-17T00:36:49;101379.91;;;14.33;100.00
29869;BME280;16743;52.062;5.384;2022-10-17T00:39:54;101378.34;;;14.18;100.00
29869;BME280;16743;52.062;5.384;2022-10-17T00:49:48;101369.38;;;14.04;100.00
29869;BME280;16743;52.062;5.384;2022-10-17T00:57:01;101357.94;;;13.89;100.00
29869;BME280;16743;52.062;5.384;2022-10-17T01:03:20;101348.56;;;14.03;100.00
29869;BME280;16743;52.062;5.384;2022-10-17T01:09:06;101355.69;;;14.04;100.00
29869;BME280;16743;52.062;5.384;2022-10-17T01:15:12;101351.56;;;13.95;100.00
29869;BME280;16743;52.062;5.384;2022-10-17T01:22:14;101342.03;;;13.79;100.00
29869;BME280;16743;52.062;5.384;2022-10-17T01:25:44;101338.50;;;13.97;100.00
29869;BME280;16743;52.062;5.384;2022-10-17T01:29:32;101332.44;;;13.95;100.00
29869;BME280;16743;52.062;5.384;2022-10-17T01:32:53;101337.22;;;14.00;100.00
29869;BME280;16743;52.062;5.384;2022-10-17T01:40:32;101339.19;;;13.93;100.00
29869;BME280;16743;52.062;5.384;2022-10-17T01:45:50;101334.16;;;13.64;100.00
29869;BME280;16743;52.062;5.384;2022-10-17T01:49:23;101329.31;;;13.66;100.00
29869;BME280;16743;52.062;5.384;2022-10-17T01:52:37;101328.06;;;13.87;100.00
29869;BME280;16743;52.062;5.384;2022-10-17T01:59:24;101315.50;;;13.80;100.00
29869;BME280;16743;52.062;5.384;2022-10-17T02:02:02;101312.59;;;13.75;100.00
29869;BME280;16743;52.062;5.384;2022-10-17T02:30:55;101279.53;;;15.12;100.00
29869;BME280;16743;52.062;5.384;2022-10-17T02:33:48;101276.69;;;15.07;100.00
29869;BME280;16743;52.062;5.384;2022-10-17T02:36:59;101268.44;;;15.07;100.00
29869;BME280;16743;52.062;5.384;2022-10-17T02:40:12;101268.97;;;15.27;100.00
29869;BME280;16743;52.062;5.384;2022-10-17T02:43:43;101257.34;;;15.44;100.00
29869;BME280;16743;52.062;5.384;2022-10-17T02:49:49;101266.44;;;15.56;100.00
29869;BME280;16743;52.062;5.384;2022-10-17T02:53:40;101278.34;;;15.62;100.00
29869;BME280;16743;52.062;5.384;2022-10-17T03:04:20;101279.84;;;15.76;100.00
29869;BME280;16743;52.062;5.384;2022-10-17T03:07:41;101285.00;;;15.73;100.00
29869;BME280;16743;52.062;5.384;2022-10-17T03:10:13;101283.31;;;15.95;100.00
29869;BME280;16743;52.062;5.384;2022-10-17T03:13:20;101284.28;;;15.89;100.00
29869;BME280;16743;52.062;5.384;2022-10-17T03:15:49;101292.66;;;15.94;100.00
29869;BME280;16743;52.062;5.384;2022-10-17T03:18:52;101287.50;;;15.86;100.00
29869;BME280;16743;52.062;5.384;2022-10-17T03:22:07;101283.22;;;15.90;100.00
29869;BME280;16743;52.062;5.384;2022-10-17T03:24:59;101285.72;;;15.80;100.00
29869;BME280;16743;52.062;5.384;2022-10-17T03:31:45;101285.03;;;15.96;100.00
29869;BME280;16743;52.062;5.384;2022-10-17T03:34:45;101293.09;;;15.91;100.00
29869;BME280;16743;52.062;5.384;2022-10-17T03:38:48;101289.66;;;15.96;100.00
29869;BME280;16743;52.062;5.384;2022-10-17T03:43:56;101294.06;;;16.08;100.00
29869;BME280;16743;52.062;5.384;2022-10-17T03:46:25;101299.78;;;15.95;100.00
29869;BME280;16743;52.062;5.384;2022-10-17T03:49:18;101298.47;;;15.98;100.00
29869;BME280;16743;52.062;5.384;2022-10-17T03:52:32;101304.22;;;16.08;100.00
29869;BME280;16743;52.062;5.384;2022-10-17T03:55:35;101300.03;;;16.05;100.00
29869;BME280;16743;52.062;5.384;2022-10-17T03:59:19;101298.75;;;15.96;100.00
29869;BME280;16743;52.062;5.384;2022-10-17T04:02:26;101296.94;;;16.14;100.00
29869;BME280;16743;52.062;5.384;2022-10-17T04:05:11;101291.47;;;16.14;100.00
29869;BME280;16743;52.062;5.384;2022-10-17T04:21:22;101309.00;;;16.13;100.00
29869;BME280;16743;52.062;5.384;2022-10-17T04:24:23;101314.13;;;16.21;100.00
29869;BME280;16743;52.062;5.384;2022-10-17T04:26:56;101318.91;;;16.37;100.00
29869;BME280;16743;52.062;5.384;2022-10-17T04:33:19;101322.84;;;16.18;100.00
29869;BME280;16743;52.062;5.384;2022-10-17T04:37:30;101320.94;;;16.18;100.00
29869;BME280;16743;52.062;5.384;2022-10-17T04:39:37;101317.09;;;16.19;100.00
29869;BME280;16743;52.062;5.384;2022-10-17T04:42:46;101332.50;;;16.20;100.00
29869;BME280;16743;52.062;5.384;2022-10-17T04:54:57;101340.88;;;16.37;100.00
29869;BME280;16743;52.062;5.384;2022-10-17T04:57:24;101343.63;;;16.37;100.00
29869;BME280;16743;52.062;5.384;2022-10-17T05:00:33;101347.56;;;16.41;100.00
29869;BME280;16743;52.062;5.384;2022-10-17T05:03:20;101346.34;;;16.49;100.00
29869;BME280;16743;52.062;5.384;2022-10-17T05:06:30;101354.59;;;16.37;100.00
29869;BME280;16743;52.062;5.384;2022-10-17T05:09:32;101346.84;;;16.58;100.00
29869;BME280;16743;52.062;5.384;2022-10-17T05:13:06;101348.50;;;16.35;100.00
29869;BME280;16743;52.062;5.384;2022-10-17T05:18:00;101353.28;;;16.51;100.00
29869;BME280;16743;52.062;5.384;2022-10-17T05:19:26;101343.63;;;16.14;100.00
29869;BME280;16743;52.062;5.384;2022-10-17T05:22:52;101352.81;;;16.31;100.00
29869;BME280;16743;52.062;5.384;2022-10-17T05:25:24;101348.16;;;16.31;100.00
29869;BME280;16743;52.062;5.384;2022-10-17T05:38:30;101357.34;;;16.37;100.00
29869;BME280;16743;52.062;5.384;2022-10-17T05:41:13;101366.78;;;16.29;100.00
29869;BME280;16743;52.062;5.384;2022-10-17T05:48:21;101363.78;;;16.31;100.00
29869;BME280;16743;52.062;5.384;2022-10-17T05:51:49;101353.41;;;16.33;100.00
29869;BME280;16743;52.062;5.384;2022-10-17T05:55:02;101353.41;;;16.45;100.00
29869;BME280;16743;52.062;5.384;2022-10-17T05:58:21;101356.53;;;16.37;100.00
29869;BME280;16743;52.062;5.384;2022-10-17T06:01:00;101344.22;;;16.39;100.00
29869;BME280;16743;52.062;5.384;2022-10-17T06:03:44;101354.50;;;16.32;100.00
29869;BME280;16743;52.062;5.384;2022-10-17T06:09:24;101357.84;;;16.58;100.00
29869;BME280;16743;52.062;5.384;2022-10-17T06:15:01;101369.63;;;16.46;100.00
29869;BME280;16743;52.062;5.384;2022-10-17T06:18:15;101353.16;;;16.46;100.00
29869;BME280;16743;52.062;5.384;2022-10-17T06:20:36;101362.72;;;16.56;100.00
29869;BME280;16743;52.062;5.384;2022-10-17T06:23:47;101364.97;;;16.59;100.00
29869;BME280;16743;52.062;5.384;2022-10-17T06:26:58;101379.31;;;16.61;100.00
29869;BME280;16743;52.062;5.384;2022-10-17T06:29:25;101379.91;;;16.51;100.00
29869;BME280;16743;52.062;5.384;2022-10-17T06:32:18;101385.75;;;16.55;100.00
29869;BME280;16743;52.062;5.384;2022-10-17T06:34:49;101400.09;;;16.57;100.00
29869;BME280;16743;52.062;5.384;2022-10-17T06:40:22;101382.16;;;16.66;100.00
29869;BME280;16743;52.062;5.384;2022-10-17T06:42:49;101399.38;;;16.61;100.00
29869;BME280;16743;52.062;5.384;2022-10-17T06:49:10;101399.97;;;16.75;100.00
29869;BME280;16743;52.062;5.384;2022-10-17T06:52:20;101411.56;;;16.77;100.00
29869;BME280;16743;52.062;5.384;2022-10-17T06:55:34;101416.59;;;16.80;100.00
29869;BME280;16743;52.062;5.384;2022-10-17T07:01:46;101419.47;;;16.85;100.00
29869;BME280;16743;52.062;5.384;2022-10-17T07:04:55;101424.97;;;16.85;100.00
29869;BME280;16743;52.062;5.384;2022-10-17T07:07:22;101429.38;;;16.86;100.00
29869;BME280;16743;52.062;5.384;2022-10-17T07:10:22;101436.41;;;17.06;100.00
29869;BME280;16743;52.062;5.384;2022-10-17T07:15:57;101440.13;;;17.11;100.00
29869;BME280;16743;52.062;5.384;2022-10-17T07:18:53;101442.63;;;17.13;100.00
29869;BME280;16743;52.062;5.384;2022-10-17T07:21:59;101438.31;;;17.17;100.00
29869;BME280;16743;52.062;5.384;2022-10-17T07:24:26;101442.50;;;17.20;100.00
29869;BME280;16743;52.062;5.384;2022-10-17T07:27:30;101439.00;;;17.24;100.00
29869;BME280;16743;52.062;5.384;2022-10-17T07:30:13;101430.09;;;17.46;100.00
29869;BME280;16743;52.062;5.384;2022-10-17T07:33:11;101443.91;;;17.22;100.00
29869;BME280;16743;52.062;5.384;2022-10-17T07:35:53;101441.84;;;17.29;100.00
29869;BME280;16743;52.062;5.384;2022-10-17T07:38:38;101447.72;;;17.33;100.00
29869;BME280;16743;52.062;5.384;2022-10-17T07:41:38;101442.72;;;17.30;100.00
29869;BME280;16743;52.062;5.384;2022-10-17T07:44:09;101444.22;;;17.38;100.00
29869;BME280;16743;52.062;5.384;2022-10-17T07:46:45;101462.31;;;17.33;100.00
29869;BME280;16743;52.062;5.384;2022-10-17T07:49:50;101469.97;;;17.31;100.00
29869;BME280;16743;52.062;5.384;2022-10-17T07:52:19;101488.03;;;17.27;100.00
29869;BME280;16743;52.062;5.384;2022-10-17T07:55:06;101523.19;;;17.25;100.00
29869;BME280;16743;52.062;5.384;2022-10-17T07:57:35;101551.88;;;17.29;100.00
29869;BME280;16743;52.062;5.384;2022-10-17T08:00:02;101573.78;;;17.24;100.00
29869;BME280;16743;52.062;5.384;2022-10-17T08:02:55;101603.09;;;17.30;100.00
29869;BME280;16743;52.062;5.384;2022-10-17T08:05:27;101604.63;;;17.38;100.00
29869;BME280;16743;52.062;5.384;2022-10-17T08:08:36;101599.72;;;17.40;100.00
29869;BME280;16743;52.062;5.384;2022-10-17T08:11:23;101609.53;;;17.48;100.00
29869;BME280;16743;52.062;5.384;2022-10-17T08:14:12;101614.53;;;17.51;100.00
29869;BME280;16743;52.062;5.384;2022-10-17T08:17:30;101614.53;;;17.51;100.00
29869;BME280;16743;52.062;5.384;2022-10-17T08:23:48;101585.91;;;17.76;100.00
29869;BME280;16743;52.062;5.384;2022-10-17T08:26:57;101570.34;;;17.93;100.00
29869;BME280;16743;52.062;5.384;2022-10-17T08:32:33;101587.16;;;18.08;100.00
29869;BME280;16743;52.062;5.384;2022-10-17T08:46:13;101663.72;;;17.83;100.00
29869;BME280;16743;52.062;5.384;2022-10-17T08:48:50;101677.72;;;17.93;100.00
29869;BME280;16743;52.062;5.384;2022-10-17T08:54:51;101669.97;;;17.90;100.00
29869;BME280;16743;52.062;5.384;2022-10-17T08:58:02;101658.31;;;18.11;100.00
29869;BME280;16743;52.062;5.384;2022-10-17T09:22:27;101591.53;;;17.81;100.00
29869;BME280;16743;52.062;5.384;2022-10-17T09:31:00;101627.69;;;17.96;100.00
29869;BME280;16743;52.062;5.384;2022-10-17T09:39:15;101654.25;;;18.02;100.00
29869;BME280;16743;52.062;5.384;2022-10-17T09:42:28;101644.75;;;18.10;100.00
29869;BME280;16743;52.062;5.384;2022-10-17T09:52:46;101616.69;;;17.96;100.00
29869;BME280;16743;52.062;5.384;2022-10-17T09:55:49;101606.03;;;17.88;100.00
29869;BME280;16743;52.062;5.384;2022-10-17T09:58:47;101608.22;;;18.14;100.00
29869;BME280;16743;52.062;5.384;2022-10-17T10:01:43;101622.09;;;18.20;100.00
29869;BME280;16743;52.062;5.384;2022-10-17T10:04:51;101652.66;;;18.18;100.00
29869;BME280;16743;52.062;5.384;2022-10-17T10:07:34;101642.97;;;18.16;100.00
29869;BME280;16743;52.062;5.384;2022-10-17T10:11:02;101655.84;;;18.27;100.00
29869;BME280;16743;52.062;5.384;2022-10-17T10:14:38;101662.84;;;18.18;100.00
29869;BME280;16743;52.062;5.384;2022-10-17T10:17:55;101670.56;;;18.32;100.00
29869;BME280;16743;52.062;5.384;2022-10-17T10:20:36;101695.31;;;18.44;100.00
29869;BME280;16743;52.062;5.384;2022-10-17T10:23:21;101702.69;;;18.27;100.00
29869;BME280;16743;52.062;5.384;2022-10-17T10:26:33;101716.19;;;18.40;100.00
29869;BME280;16743;52.062;5.384;2022-10-17T10:29:21;101731.19;;;18.21;100.00
29869;BME280;16743;52.062;5.384;2022-10-17T10:37:32;101721.28;;;18.08;100.00
29869;BME280;16743;52.062;5.384;2022-10-17T10:38:56;101730.75;;;18.24;100.00
29869;BME280;16743;52.062;5.384;2022-10-17T10:48:29;101748.31;;;18.23;100.00
29869;BME280;16743;52.062;5.384;2022-10-17T10:51:29;101745.75;;;18.04;100.00
29869;BME280;16743;52.062;5.384;2022-10-17T10:57:35;101761.41;;;18.16;100.00
29869;BME280;16743;52.062;5.384;2022-10-17T11:03:39;101765.22;;;18.26;100.00
29869;BME280;16743;52.062;5.384;2022-10-17T11:06:48;101777.09;;;18.03;100.00
29869;BME280;16743;52.062;5.384;2022-10-17T11:10:14;101766.69;;;18.05;100.00
29869;BME280;16743;52.062;5.384;2022-10-17T11:13:12;101769.44;;;18.17;100.00
29869;BME280;16743;52.062;5.384;2022-10-17T11:16:51;101779.69;;;18.33;100.00
29869;BME280;16743;52.062;5.384;2022-10-17T11:19:37;101780.28;;;18.47;100.00
29869;BME280;16743;52.062;5.384;2022-10-17T11:22:39;101797.69;;;17.89;100.00
29869;BME280;16743;52.062;5.384;2022-10-17T11:25:51;101789.16;;;17.79;100.00
29869;BME280;16743;52.062;5.384;2022-10-17T11:29:04;101794.22;;;18.05;100.00
29869;BME280;16743;52.062;5.384;2022-10-17T11:32:59;101799.50;;;18.07;100.00
29869;BME280;16743;52.062;5.384;2022-10-17T11:35:29;101812.53;;;17.88;100.00
29869;BME280;16743;52.062;5.384;2022-10-17T11:45:38;101817.34;;;18.04;100.00
29869;BME280;16743;52.062;5.384;2022-10-17T12:01:03;101825.22;;;18.01;100.00
29869;BME280;16743;52.062;5.384;2022-10-17T12:02:39;101822.22;;;18.14;100.00
29869;BME280;16743;52.062;5.384;2022-10-17T12:05:53;101819.00;;;18.29;100.00
29869;BME280;16743;52.062;5.384;2022-10-17T12:09:00;101819.47;;;18.49;100.00
29869;BME280;16743;52.062;5.384;2022-10-17T12:12:58;101811.19;;;18.38;100.00
29869;BME280;16743;52.062;5.384;2022-10-17T12:18:41;101815.56;;;18.74;100.00
29869;BME280;16743;52.062;5.384;2022-10-17T12:22:16;101830.00;;;18.52;100.00
29869;BME280;16743;52.062;5.384;2022-10-17T12:25:46;101816.13;;;18.47;100.00
29869;BME280;16743;52.062;5.384;2022-10-17T12:32:16;101840.88;;;18.71;100.00
29869;BME280;16743;52.062;5.384;2022-10-17T12:56:06;101856.25;;;18.31;100.00
29869;BME280;16743;52.062;5.384;2022-10-17T13:05:57;101870.13;;;17.89;100.00
29869;BME280;16743;52.062;5.384;2022-10-17T13:08:55;101870.16;;;18.13;100.00
29869;BME280;16743;52.062;5.384;2022-10-17T13:11:40;101868.56;;;18.05;100.00
29869;BME280;16743;52.062;5.384;2022-10-17T13:14:42;101883.19;;;17.94;100.00
29869;BME280;16743;52.062;5.384;2022-10-17T13:20:40;101887.00;;;17.93;100.00
29869;BME280;16743;52.062;5.384;2022-10-17T13:23:28;101893.88;;;18.26;100.00
29869;BME280;16743;52.062;5.384;2022-10-17T13:26:22;101894.91;;;18.01;100.00
29869;BME280;16743;52.062;5.384;2022-10-17T13:29:31;101904.63;;;18.27;100.00
29869;BME280;16743;52.062;5.384;2022-10-17T13:32:46;101921.28;;;18.21;100.00
29869;BME280;16743;52.062;5.384;2022-10-17T13:36:21;101920.47;;;18.20;100.00
29869;BME280;16743;52.062;5.384;2022-10-17T13:39:16;101931.97;;;18.41;100.00
29869;BME280;16743;52.062;5.384;2022-10-17T13:42:29;101938.78;;;18.38;100.00
29869;BME280;16743;52.062;5.384;2022-10-17T13:48:35;101938.31;;;18.29;100.00
29869;BME280;16743;52.062;5.384;2022-10-17T13:51:04;101939.63;;;18.15;100.00
29869;BME280;16743;52.062;5.384;2022-10-17T14:01:51;101957.22;;;18.14;100.00
29869;BME280;16743;52.062;5.384;2022-10-17T14:05:30;101958.19;;;18.20;100.00
29869;BME280;16743;52.062;5.384;2022-10-17T14:08:38;101957.34;;;18.19;100.00
29869;BME280;16743;52.062;5.384;2022-10-17T14:12:40;101961.31;;;18.35;100.00
29869;BME280;16743;52.062;5.384;2022-10-17T14:16:04;101949.94;;;18.20;100.00
29869;BME280;16743;52.062;5.384;2022-10-17T14:22:49;101958.31;;;18.13;100.00
29869;BME280;16743;52.062;5.384;2022-10-17T14:33:37;101934.38;;;18.61;100.00
29869;BME280;16743;52.062;5.384;2022-10-17T14:36:45;101940.59;;;18.68;100.00
29869;BME280;16743;52.062;5.384;2022-10-17T14:43:15;101957.38;;;18.43;100.00
29869;BME280;16743;52.062;5.384;2022-10-17T14:46:20;101945.63;;;18.59;100.00
29869;BME280;16743;52.062;5.384;2022-10-17T14:49:50;101946.34;;;18.54;100.00
29869;BME280;16743;52.062;5.384;2022-10-17T14:52:29;101955.31;;;18.38;100.00
29869;BME280;16743;52.062;5.384;2022-10-17T15:09:31;101988.34;;;18.14;100.00
29869;BME280;16743;52.062;5.384;2022-10-17T15:12:57;101990.31;;;18.26;100.00
29869;BME280;16743;52.062;5.384;2022-10-17T15:19:20;101989.22;;;18.15;100.00
29869;BME280;16743;52.062;5.384;2022-10-17T15:22:02;101990.47;;;18.01;100.00
29869;BME280;16743;52.062;5.384;2022-10-17T15:27:51;101988.28;;;18.21;100.00
29869;BME280;16743;52.062;5.384;2022-10-17T15:31:35;101992.13;;;18.32;100.00
29869;BME280;16743;52.062;5.384;2022-10-17T15:37:35;102011.66;;;18.42;100.00
29869;BME280;16743;52.062;5.384;2022-10-17T15:47:17;102021.22;;;17.98;100.00
29869;BME280;16743;52.062;5.384;2022-10-17T15:50:35;102027.09;;;18.01;100.00
29869;BME280;16743;52.062;5.384;2022-10-17T15:53:07;102035.03;;;18.09;100.00
29869;BME280;16743;52.062;5.384;2022-10-17T15:59:04;102043.53;;;18.08;100.00
29869;BME280;16743;52.062;5.384;2022-10-17T16:02:12;102038.44;;;17.93;100.00
29869;BME280;16743;52.062;5.384;2022-10-17T16:04:48;102032.22;;;17.98;100.00
29869;BME280;16743;52.062;5.384;2022-10-17T16:07:28;102050.16;;;17.88;100.00
29869;BME280;16743;52.062;5.384;2022-10-17T16:10:01;102041.97;;;17.63;100.00
29869;BME280;16743;52.062;5.384;2022-10-17T16:13:16;102053.59;;;17.65;100.00
29869;BME280;16743;52.062;5.384;2022-10-17T16:16:01;102063.06;;;17.51;100.00
29869;BME280;16743;52.062;5.384;2022-10-17T16:19:06;102059.13;;;17.47;100.00
29869;BME280;16743;52.062;5.384;2022-10-17T16:21:39;102053.63;;;17.47;100.00
29869;BME280;16743;52.062;5.384;2022-10-17T16:24:38;102068.03;;;17.42;100.00
29869;BME280;16743;52.062;5.384;2022-10-17T16:27:09;102062.78;;;17.22;100.00
29869;BME280;16743;52.062;5.384;2022-10-17T16:29:52;102065.91;;;17.26;100.00
29869;BME280;16743;52.062;5.384;2022-10-17T16:32:39;102067.75;;;17.32;100.00
29869;BME280;16743;52.062;5.384;2022-10-17T16:35:46;102076.19;;;17.12;100.00
29869;BME280;16743;52.062;5.384;2022-10-17T16:38:06;102084.84;;;17.16;100.00
29869;BME280;16743;52.062;5.384;2022-10-17T16:41:16;102085.53;;;17.11;100.00
29869;BME280;16743;52.062;5.384;2022-10-17T16:47:09;102086.75;;;17.33;100.00
29869;BME280;16743;52.062;5.384;2022-10-17T16:49:39;102085.25;;;17.38;100.00
29869;BME280;16743;52.062;5.384;2022-10-17T16:52:15;102096.09;;;17.32;100.00
29869;BME280;16743;52.062;5.384;2022-10-17T16:55:04;102101.28;;;17.22;100.00
29869;BME280;16743;52.062;5.384;2022-10-17T16:58:18;102102.19;;;17.16;100.00
29869;BME280;16743;52.062;5.384;2022-10-17T17:07:55;102097.91;;;17.20;100.00
29869;BME280;16743;52.062;5.384;2022-10-17T17:21:19;102124.69;;;16.81;100.00
29869;BME280;16743;52.062;5.384;2022-10-17T17:24:40;102117.69;;;16.85;100.00
29869;BME280;16743;52.062;5.384;2022-10-17T17:31:07;102110.31;;;16.79;100.00
29869;BME280;16743;52.062;5.384;2022-10-17T17:34:07;102112.19;;;16.79;100.00
29869;BME280;16743;52.062;5.384;2022-10-17T17:44:28;102124.03;;;16.79;100.00
29869;BME280;16743;52.062;5.384;2022-10-17T17:47:16;102127.06;;;16.71;100.00
29869;BME280;16743;52.062;5.384;2022-10-17T17:50:18;102141.22;;;16.68;100.00
29869;BME280;16743;52.062;5.384;2022-10-17T17:53:19;102134.50;;;16.64;100.00
29869;BME280;16743;52.062;5.384;2022-10-17T18:17:15;102157.78;;;16.93;100.00
29869;BME280;16743;52.062;5.384;2022-10-17T18:19:51;102160.22;;;16.76;100.00
29869;BME280;16743;52.062;5.384;2022-10-17T18:23:12;102161.44;;;16.87;100.00
29869;BME280;16743;52.062;5.384;2022-10-17T18:28:07;102168.22;;;16.84;100.00
29869;BME280;16743;52.062;5.384;2022-10-17T18:29:04;102168.44;;;16.76;100.00
29869;BME280;16743;52.062;5.384;2022-10-17T18:31:52;102169.34;;;16.70;100.00
29869;BME280;16743;52.062;5.384;2022-10-17T18:38:04;102172.91;;;16.39;100.00
29869;BME280;16743;52.062;5.384;2022-10-17T18:41:03;102171.53;;;16.55;100.00
29869;BME280;16743;52.062;5.384;2022-10-17T18:43:35;102173.63;;;16.59;100.00
29869;BME280;16743;52.062;5.384;2022-10-17T18:46:21;102178.28;;;16.59;100.00
29869;BME280;16743;52.062;5.384;2022-10-17T18:49:18;102173.16;;;16.69;100.00
29869;BME280;16743;52.062;5.384;2022-10-17T18:54:47;102178.91;;;16.61;100.00
29869;BME280;16743;52.062;5.384;2022-10-17T18:55:39;102182.16;;;16.44;100.00
29869;BME280;16743;52.062;5.384;2022-10-17T18:58:30;102180.41;;;16.57;100.00
29869;BME280;16743;52.062;5.384;2022-10-17T19:01:19;102178.69;;;16.62;100.00
29869;BME280;16743;52.062;5.384;2022-10-17T19:04:07;102184.63;;;16.59;100.00
29869;BME280;16743;52.062;5.384;2022-10-17T19:07:20;102181.22;;;16.64;100.00
29869;BME280;16743;52.062;5.384;2022-10-17T19:10:10;102193.53;;;16.55;100.00
29869;BME280;16743;52.062;5.384;2022-10-17T19:12:55;102194.66;;;16.47;100.00
29869;BME280;16743;52.062;5.384;2022-10-17T19:15:33;102196.50;;;16.53;100.00
29869;BME280;16743;52.062;5.384;2022-10-17T19:21:56;102198.41;;;16.52;100.00
29869;BME280;16743;52.062;5.384;2022-10-17T19:35:02;102213.47;;;16.43;100.00
29869;BME280;16743;52.062;5.384;2022-10-17T19:38:14;102206.78;;;16.26;100.00
29869;BME280;16743;52.062;5.384;2022-10-17T19:40:42;102202.50;;;16.37;100.00
29869;BME280;16743;52.062;5.384;2022-10-17T19:47:19;102204.59;;;16.41;100.00
29869;BME280;16743;52.062;5.384;2022-10-17T19:57:39;102211.16;;;16.34;100.00
29869;BME280;16743;52.062;5.384;2022-10-17T20:03:44;102215.13;;;16.44;100.00
29869;BME280;16743;52.062;5.384;2022-10-17T20:06:43;102220.00;;;16.42;100.00
29869;BME280;16743;52.062;5.384;2022-10-17T20:09:31;102220.25;;;16.41;100.00
29869;BME280;16743;52.062;5.384;2022-10-17T20:12:50;102227.38;;;16.48;100.00
29869;BME280;16743;52.062;5.384;2022-10-17T20:18:36;102239.13;;;16.69;100.00
29869;BME280;16743;52.062;5.384;2022-10-17T20:21:21;102239.00;;;16.50;100.00
29869;BME280;16743;52.062;5.384;2022-10-17T20:24:27;102246.44;;;16.43;100.00
29869;BME280;16743;52.062;5.384;2022-10-17T20:27:20;102250.25;;;16.36;100.00
29869;BME280;16743;52.062;5.384;2022-10-17T20:33:28;102254.47;;;16.38;100.00
29869;BME280;16743;52.062;5.384;2022-10-17T20:36:22;102253.41;;;16.39;100.00
29869;BME280;16743;52.062;5.384;2022-10-17T20:39:15;102257.81;;;16.54;100.00
29869;BME280;16743;52.062;5.384;2022-10-17T20:41:45;102260.56;;;16.54;100.00
29869;BME280;16743;52.062;5.384;2022-10-17T20:44:38;102266.31;;;16.39;100.00
29869;BME280;16743;52.062;5.384;2022-10-17T20:47:59;102273.47;;;16.46;100.00
29869;BME280;16743;52.062;5.384;2022-10-17T20:51:06;102276.25;;;16.33;100.00
29869;BME280;16743;52.062;5.384;2022-10-17T20:54:11;102286.38;;;16.39;100.00
29869;BME280;16743;52.062;5.384;2022-10-17T20:57:05;102283.22;;;16.36;100.00
29869;BME280;16743;52.062;5.384;2022-10-17T21:00:03;102284.16;;;15.96;100.00
29869;BME280;16743;52.062;5.384;2022-10-17T21:03:01;102288.97;;;16.14;100.00
29869;BME280;16743;52.062;5.384;2022-10-17T21:05:49;102292.56;;;16.15;100.00
29869;BME280;16743;52.062;5.384;2022-10-17T21:11:50;102304.19;;;16.17;100.00
29869;BME280;16743;52.062;5.384;2022-10-17T21:14:30;102308.81;;;16.23;100.00
29869;BME280;16743;52.062;5.384;2022-10-17T21:17:26;102316.03;;;16.04;100.00
29869;BME280;16743;52.062;5.384;2022-10-17T21:19:58;102324.47;;;16.22;100.00
29869;BME280;16743;52.062;5.384;2022-10-17T21:22:44;102318.72;;;16.37;100.00
29869;BME280;16743;52.062;5.384;2022-10-17T21:26:09;102320.88;;;16.22;100.00
29869;BME280;16743;52.062;5.384;2022-10-17T21:29:19;102313.91;;;16.13;100.00
29869;BME280;16743;52.062;5.384;2022-10-17T21:32:39;102324.47;;;16.16;100.00
29869;BME280;16743;52.062;5.384;2022-10-17T21:35:16;102321.28;;;16.32;100.00
29869;BME280;16743;52.062;5.384;2022-10-17T21:37:45;102307.75;;;16.30;100.00
29869;BME280;16743;52.062;5.384;2022-10-17T21:40:56;102307.75;;;16.30;100.00
29869;BME280;16743;52.062;5.384;2022-10-17T21:44:19;102313.28;;;16.17;100.00
29869;BME280;16743;52.062;5.384;2022-10-17T21:50:09;102321.75;;;16.02;100.00
29869;BME280;16743;52.062;5.384;2022-10-17T21:53:12;102318.38;;;16.07;100.00
29869;BME280;16743;52.062;5.384;2022-10-17T21:56:07;102310.34;;;15.92;100.00
29869;BME280;16743;52.062;5.384;2022-10-17T21:58:50;102305.28;;;15.89;100.00
29869;BME280;16743;52.062;5.384;2022-10-17T22:01:21;102309.28;;;16.00;100.00
29869;BME280;16743;52.062;5.384;2022-10-17T22:04:44;102317.09;;;16.03;100.00
29869;BME280;16743;52.062;5.384;2022-10-17T22:07:13;102324.28;;;15.97;100.00
29869;BME280;16743;52.062;5.384;2022-10-17T22:09:57;102331.06;;;15.88;100.00
29869;BME280;16743;52.062;5.384;2022-10-17T22:13:23;102323.66;;;15.82;100.00
29869;BME280;16743;52.062;5.384;2022-10-17T22:16:20;102326.81;;;15.79;100.00
29869;BME280;16743;52.062;5.384;2022-10-17T22:19:33;102332.09;;;15.74;100.00
29869;BME280;16743;52.062;5.384;2022-10-17T22:22:45;102340.09;;;15.68;100.00
29869;BME280;16743;52.062;5.384;2022-10-17T22:25:39;102342.81;;;15.55;100.00
29869;BME280;16743;52.062;5.384;2022-10-17T22:28:08;102335.22;;;15.57;100.00
29869;BME280;16743;52.062;5.384;2022-10-17T22:31:07;102338.59;;;15.59;100.00
29869;BME280;16743;52.062;5.384;2022-10-17T22:37:04;102340.69;;;15.50;100.00
29869;BME280;16743;52.062;5.384;2022-10-17T22:43:37;102338.78;;;15.51;100.00